Hamburg, AR (71646)

12:36 PM CDT on September 30, 2014 (GMT -0500)
Bastrop | Change Station
CLOSE
Current Station
Airport
Location: Bastrop,
Elevation: 167 ft
Nearby Weather Stations

Elev 167 ft 32.76 °N, 91.88 °W | Updated 21 minutes ago

Clear
Clear
88 °F
Feels Like 89 °F
N
4
Wind Variable Wind from SW

Today
High -- | Low -- °F
--% Chance of Precip.
Yesterday
High -- | Low -- °F
Precip. -- in
7:00 AM 6:53 PM
Waxing Crescent, 38% visible
Pressure 29.92 in
Visibility 10.0 miles
Clouds Scattered Clouds 4800 ft
Heat Index 89 °F
Dew Point 64 °F
Humidity 45%
Rainfall 0.00 in
Snow Depth Not available.
UV 6 out of 12
Pollen 8.40 out of 12
Air Quality Not available.
Flu Activity Not available.
METAR KBQP 301715Z AUTO 23003KT 10SM SCT048 31/18 A2992 RMK AO2 T03110180

More Conditions Fewer Conditions

Pressure 29.92 in
Visibility 10.0 miles
Clouds Scattered Clouds 4800 ft
Heat Index 89 °F
Dew Point 64 °F
Humidity 45%
Rainfall 0.00 in
Snow Depth Not available.
UV 6 out of 12
Pollen 8.40 out of 12
Air Quality Not available.
Flu Activity Not available.
METAR KBQP 301715Z AUTO 23003KT 10SM SCT048 31/18 A2992 RMK AO2 T03110180

More Conditions Fewer Conditions

10-Day Weather Forecast

Almanac

Astronomy

Sep. 30, 2014 Rise Set
Actual Time 7:00 AM CDT 6:53 PM CDT
Civil Twilight 6:36 AM CDT 7:17 PM CDT
Nautical Twilight 6:07 AM CDT 7:46 PM CDT
Astronomical Twilight 5:38 AM CDT 8:15 PM CDT
Moon 12:55 PM CDT 11:37 PM CDT
Length of Visible Light 12h 41m
Length of Day
11h 52m
Tomorrow will be 2m 1s shorter.
Waxing Crescent, 38% of the Moon is Illuminated
Today
Waxing Crescent
Oct 1
First Quarter
Oct 8
Full
Oct 15
Last Quarter
Oct 23
New

Today's Extremes

State Highs State Lows

Community

WunderPhotos

Upload Photos

1,757,692 photos uploaded!

Nearby

Snow Depth

Station Depth Elevation
No new snow has been reported.

Earthquake Activity

City Distance Mag. Time & Date
No recent earthquake activity has been reported nearby.
Minimum magnitude displayed is 2.5.

Coastal Water Temperatures

Place Temperature
No Stations Reporting

Nearby Weather Stations